Terminal Aerodrome Forecast
Issued by NWS Sterling, VA

Current Version | Previous Version | Text Only | Print | Product List | Glossary Off
Versions: 1 2 3 4 5 6 7 8 9 10 11 12 13 14 15 16 17 18 19 20 21 22 23 24 25 26 27 28 29

000
FTUS41 KLWX 241129
TAFDCA
TAF
KDCA 241129Z 2412/2512 03006KT P6SM FEW250
     FM241600 10006KT P6SM SCT050
     FM241900 16006KT P6SM SCT050
     FM250000 14005KT P6SM SCT250
     FM250800 20004KT P6SM SCT110=

USA.gov is the U.S. government's official web portal to all federal, state and local government web resources and services.